createdAt,value
2022-11-28T00:01:01.910Z,65.12
2022-11-28T00:02:03.994Z,65.42
2022-11-28T00:03:05.792Z,64.76
2022-11-28T00:04:08.605Z,65.31
2022-11-28T00:05:12.120Z,65.21
2022-11-28T00:06:14.112Z,65.49
2022-11-28T00:07:16.082Z,64.07
2022-11-28T00:08:18.409Z,64.28
2022-11-28T00:09:21.266Z,63.98
2022-11-28T00:10:23.041Z,64.61
2022-11-28T00:11:25.052Z,63.98
2022-11-28T00:12:27.727Z,63.74
2022-11-28T00:13:29.406Z,63.96
2022-11-28T00:14:31.104Z,63.87
2022-11-28T00:15:32.992Z,63.67
2022-11-28T00:16:35.123Z,63.43
2022-11-28T00:17:36.780Z,63.35
2022-11-28T00:18:38.484Z,63.94
2022-11-28T00:19:40.194Z,63.95
2022-11-28T00:20:41.886Z,63.13
2022-11-28T00:21:43.560Z,63.11
2022-11-28T00:22:45.208Z,62.91
2022-11-28T00:23:48.829Z,63.19
2022-11-28T00:24:50.492Z,62.86
2022-11-28T00:26:00.117Z,62.87
2022-11-28T00:27:01.853Z,63.10
2022-11-28T00:28:03.537Z,63.71
2022-11-28T00:29:06.689Z,63.71
2022-11-28T00:30:08.936Z,64.30
2022-11-28T00:31:20.477Z,64.26
2022-11-28T00:32:22.169Z,64.47
2022-11-28T00:33:24.321Z,64.19
2022-11-28T00:34:25.994Z,64.48
2022-11-28T00:35:27.682Z,64.40
2022-11-28T00:36:30.103Z,64.89
2022-11-28T00:37:31.848Z,64.70
2022-11-28T00:38:33.741Z,65.34
2022-11-28T00:39:35.435Z,65.18
2022-11-28T00:40:37.098Z,65.60
2022-11-28T00:41:38.785Z,65.38
2022-11-28T00:42:40.488Z,65.92
2022-11-28T00:43:43.900Z,66.15
2022-11-28T00:44:45.652Z,66.94
2022-11-28T00:45:47.367Z,66.62
2022-11-28T00:46:49.152Z,66.52
2022-11-28T00:47:50.871Z,66.03
2022-11-28T00:48:53.087Z,65.15
2022-11-28T00:49:54.749Z,65.38
2022-11-28T00:51:04.797Z,66.40
2022-11-28T00:52:06.657Z,66.68
2022-11-28T00:53:08.347Z,67.35
2022-11-28T00:54:10.335Z,66.99
2022-11-28T00:55:12.007Z,67.29
2022-11-28T00:56:16.060Z,66.71
2022-11-28T00:57:17.749Z,66.41
2022-11-28T00:58:19.431Z,65.74
2022-11-28T00:59:21.089Z,65.72
2022-11-28T01:00:22.932Z,66.04
2022-11-28T01:01:30.587Z,65.83
2022-11-28T01:02:32.428Z,65.68
2022-11-28T01:03:34.142Z,65.40
2022-11-28T01:04:35.832Z,65.79
2022-11-28T01:05:41.912Z,65.56
2022-11-28T01:06:46.837Z,66.38
2022-11-28T01:07:48.536Z,66.33
2022-11-28T01:08:51.019Z,66.96
2022-11-28T01:09:52.658Z,66.70
2022-11-28T01:10:54.349Z,66.95
2022-11-28T01:11:56.653Z,67.82
2022-11-28T01:12:58.311Z,68.72
2022-11-28T01:14:01.984Z,69.04
2022-11-28T01:15:05.375Z,68.47
2022-11-28T01:16:08.233Z,68.24
2022-11-28T01:17:09.967Z,67.78
2022-11-28T01:18:11.752Z,68.05
2022-11-28T01:19:14.031Z,67.15
2022-11-28T01:20:15.808Z,67.22
2022-11-28T01:21:18.094Z,67.42
2022-11-28T01:22:19.799Z,67.85
2022-11-28T01:23:21.677Z,67.43
2022-11-28T01:24:23.370Z,67.62
2022-11-28T01:25:25.422Z,68.17
2022-11-28T01:26:29.880Z,68.55
2022-11-28T01:27:31.568Z,68.86
2022-11-28T01:28:34.197Z,68.72
2022-11-28T01:29:35.844Z,68.69
2022-11-28T01:30:37.500Z,69.53
2022-11-28T01:31:40.996Z,69.96
2022-11-28T01:32:42.832Z,70.28
2022-11-28T01:33:44.630Z,69.73
2022-11-28T01:34:46.270Z,69.92
2022-11-28T01:35:58.267Z,69.10
2022-11-28T01:37:00.357Z,69.55
2022-11-28T01:38:02.099Z,69.58
2022-11-28T01:39:03.971Z,69.95
2022-11-28T01:40:06.453Z,70.46
2022-11-28T01:41:09.362Z,69.73
2022-11-28T01:42:17.578Z,69.98
2022-11-28T01:43:19.704Z,70.07
2022-11-28T01:44:21.305Z,69.25
2022-11-28T01:45:31.717Z,69.17
2022-11-28T01:46:35.013Z,69.19
2022-11-28T01:47:36.906Z,69.57
2022-11-28T01:48:41.527Z,69.10
2022-11-28T01:49:45.527Z,69.56
2022-11-28T01:50:50.181Z,70.13
2022-11-28T01:51:56.252Z,70.25
2022-11-28T01:53:01.831Z,70.96
2022-11-28T01:54:04.076Z,70.93
2022-11-28T01:55:07.181Z,71.39
2022-11-28T01:56:23.220Z,71.17
2022-11-28T01:57:26.863Z,71.08
2022-11-28T01:58:30.588Z,71.37
2022-11-28T01:59:37.616Z,71.51
2022-11-28T02:00:39.400Z,71.29
2022-11-28T02:01:41.404Z,70.81
2022-11-28T02:03:03.565Z,71.49
2022-11-28T02:04:05.538Z,72.12
2022-11-28T02:05:07.918Z,72.37
2022-11-28T02:06:11.415Z,72.77
2022-11-28T02:07:14.144Z,72.98
2022-11-28T02:08:16.153Z,72.92
2022-11-28T02:09:17.869Z,73.06
2022-11-28T02:10:27.027Z,72.70
2022-11-28T02:11:53.535Z,72.93
2022-11-28T02:13:22.866Z,72.70
2022-11-28T02:14:38.393Z,72.99
2022-11-28T02:16:22.262Z,74.04
2022-11-28T02:18:02.396Z,73.59
2022-11-28T02:19:35.928Z,73.93
2022-11-28T02:21:10.287Z,73.42
2022-11-28T02:22:14.463Z,73.83
2022-11-28T02:23:19.601Z,73.70
2022-11-28T02:24:54.757Z,73.59
2022-11-28T02:26:24.223Z,74.22
2022-11-28T02:27:53.755Z,74.39
2022-11-28T02:29:36.051Z,74.19
2022-11-28T02:30:51.565Z,74.06
2022-11-28T02:32:09.882Z,74.39
2022-11-28T02:33:19.598Z,74.60
2022-11-28T02:34:32.967Z,74.47
2022-11-28T02:35:49.937Z,74.22
2022-11-28T02:36:59.442Z,74.17
2022-11-28T02:38:19.174Z,74.13
2022-11-28T02:39:35.979Z,73.51
2022-11-28T02:41:23.680Z,72.85
2022-11-28T02:42:45.559Z,72.82
2022-11-28T02:43:59.269Z,72.57
2022-11-28T02:45:21.226Z,72.48
2022-11-28T02:46:28.366Z,73.28
2022-11-28T02:47:36.594Z,73.41
2022-11-28T02:48:53.411Z,73.75
2022-11-28T02:50:10.821Z,73.53
2022-11-28T02:51:18.228Z,73.65
2022-11-28T02:52:29.513Z,72.86
2022-11-28T02:53:32.988Z,72.52
2022-11-28T02:54:36.877Z,72.39
2022-11-28T02:55:43.870Z,72.45
2022-11-28T02:56:49.939Z,71.88
2022-11-28T02:57:54.710Z,72.16
2022-11-28T02:58:56.452Z,72.14
2022-11-28T02:59:58.148Z,71.74
2022-11-28T03:01:00.573Z,71.46
2022-11-28T03:02:03.283Z,70.97
2022-11-28T03:03:20.229Z,71.38
2022-11-28T03:04:36.927Z,71.52
2022-11-28T03:05:44.533Z,71.70
2022-11-28T03:07:08.195Z,71.19
2022-11-28T03:08:34.365Z,71.43
2022-11-28T03:09:47.603Z,71.01
2022-11-28T03:10:59.782Z,70.81
2022-11-28T03:12:13.459Z,70.78
2022-11-28T03:13:31.741Z,70.57
2022-11-28T03:14:48.432Z,70.25
2022-11-28T03:15:59.220Z,71.52
2022-11-28T03:17:11.412Z,71.31
2022-11-28T03:18:20.572Z,70.72
2022-11-28T03:19:29.573Z,70.59
2022-11-28T03:20:50.720Z,71.15
2022-11-28T03:22:20.506Z,71.02
2022-11-28T03:23:36.117Z,70.62
2022-11-28T03:24:44.670Z,70.76
2022-11-28T03:26:13.316Z,70.80
2022-11-28T03:27:25.621Z,70.75
2022-11-28T03:28:39.263Z,70.91
2022-11-28T03:29:51.189Z,71.10
2022-11-28T03:31:12.256Z,70.84
2022-11-28T03:32:23.453Z,71.21
2022-11-28T03:33:29.833Z,71.23
2022-11-28T03:34:39.754Z,71.08
2022-11-28T03:35:48.521Z,71.47
2022-11-28T03:37:11.328Z,71.02
2022-11-28T03:38:27.451Z,71.23
2022-11-28T03:39:35.065Z,71.12
2022-11-28T03:40:42.982Z,70.96
2022-11-28T03:41:59.194Z,71.59
2022-11-28T03:43:05.596Z,71.56
2022-11-28T03:44:13.715Z,71.64
2022-11-28T03:45:24.003Z,71.06
2022-11-28T03:46:33.132Z,71.02
2022-11-28T03:47:43.742Z,70.92
2022-11-28T03:48:48.907Z,71.62
2022-11-28T03:49:57.068Z,71.94
2022-11-28T03:51:14.636Z,71.48
2022-11-28T03:52:27.881Z,71.01
2022-11-28T03:53:46.886Z,71.10
2022-11-28T03:55:01.469Z,71.43
2022-11-28T03:56:14.645Z,71.08
2022-11-28T03:57:39.967Z,71.32
2022-11-28T03:59:04.168Z,71.55
2022-11-28T04:00:08.136Z,71.81
2022-11-28T04:01:27.005Z,71.77
2022-11-28T04:02:51.323Z,71.76
2022-11-28T04:04:01.356Z,71.73
2022-11-28T04:05:17.396Z,71.82
2022-11-28T04:06:22.990Z,71.58
2022-11-28T04:07:33.462Z,71.23
2022-11-28T04:08:46.026Z,71.95
2022-11-28T04:10:15.795Z,72.21
2022-11-28T04:11:23.378Z,71.87
2022-11-28T04:12:48.239Z,72.46
2022-11-28T04:14:25.310Z,72.47
2022-11-28T04:15:35.889Z,71.93
2022-11-28T04:16:58.275Z,71.53
2022-11-28T04:18:14.937Z,72.09
2022-11-28T04:19:31.735Z,71.43
2022-11-28T04:20:40.839Z,71.67
2022-11-28T04:22:00.609Z,71.67
2022-11-28T04:23:09.755Z,72.01
2022-11-28T04:24:18.011Z,71.34
2022-11-28T04:25:22.226Z,71.76
2022-11-28T04:26:30.507Z,71.46
2022-11-28T04:27:40.063Z,71.14
2022-11-28T04:28:44.048Z,70.95
2022-11-28T04:29:53.750Z,71.06
2022-11-28T04:30:57.863Z,70.90
2022-11-28T04:32:01.373Z,70.90
2022-11-28T04:33:07.511Z,71.13
2022-11-28T04:34:11.800Z,71.07
2022-11-28T04:35:22.115Z,71.51
2022-11-28T04:36:26.966Z,71.75
2022-11-28T04:37:31.690Z,71.70
2022-11-28T04:38:34.595Z,71.43
2022-11-28T04:39:37.405Z,71.72
2022-11-28T04:41:00.421Z,71.21
2022-11-28T04:42:19.296Z,70.93
2022-11-28T04:43:27.054Z,71.53
2022-11-28T04:44:51.530Z,71.41
2022-11-28T04:46:06.887Z,70.95
2022-11-28T04:47:10.025Z,70.76
2022-11-28T04:48:11.756Z,70.57
2022-11-28T04:49:14.327Z,70.54
2022-11-28T04:50:16.331Z,71.09
2022-11-28T04:51:32.923Z,71.61
2022-11-28T04:52:50.957Z,71.59
2022-11-28T04:54:04.809Z,71.01
2022-11-28T04:55:16.959Z,71.27
2022-11-28T04:56:24.495Z,71.47
2022-11-28T04:57:54.193Z,70.76
2022-11-28T04:59:00.581Z,71.27
2022-11-28T05:00:07.228Z,70.91
2022-11-28T05:01:12.521Z,70.94
2022-11-28T05:02:16.347Z,70.95
2022-11-28T05:03:18.599Z,71.06
2022-11-28T05:04:20.283Z,70.83
2022-11-28T05:05:25.383Z,71.00
2022-11-28T05:06:35.281Z,71.16
2022-11-28T05:07:36.969Z,71.18
2022-11-28T05:08:38.738Z,70.93
2022-11-28T05:09:40.481Z,70.98
2022-11-28T05:10:42.584Z,70.60
2022-11-28T05:11:44.424Z,70.71
2022-11-28T05:12:46.352Z,70.81
2022-11-28T05:13:48.067Z,70.85
2022-11-28T05:14:49.711Z,70.50
2022-11-28T05:15:52.406Z,70.75
2022-11-28T05:16:54.159Z,70.73
2022-11-28T05:17:55.955Z,70.64
2022-11-28T05:18:57.604Z,70.67
2022-11-28T05:19:59.387Z,70.76
2022-11-28T05:21:01.668Z,70.90
2022-11-28T05:22:03.321Z,71.40
2022-11-28T05:23:05.131Z,71.04
2022-11-28T05:24:07.483Z,71.17
2022-11-28T05:25:09.410Z,71.52
2022-11-28T05:26:14.212Z,71.50
2022-11-28T05:27:16.615Z,71.12
2022-11-28T05:28:18.277Z,71.19
2022-11-28T05:29:19.915Z,71.00
2022-11-28T05:30:21.609Z,71.51
2022-11-28T05:31:23.338Z,71.63
2022-11-28T05:32:25.005Z,71.21
2022-11-28T05:33:26.719Z,71.24
2022-11-28T05:34:29.904Z,70.91
2022-11-28T05:35:31.783Z,70.83
2022-11-28T05:36:33.633Z,70.66
2022-11-28T05:37:35.385Z,70.77
2022-11-28T05:38:37.713Z,71.21
2022-11-28T05:39:39.608Z,71.72
2022-11-28T05:40:44.517Z,71.37
2022-11-28T05:41:46.272Z,71.27
2022-11-28T05:42:48.033Z,70.98
2022-11-28T05:43:49.808Z,71.08
2022-11-28T05:44:51.755Z,71.08
2022-11-28T05:45:54.260Z,71.42
2022-11-28T05:46:55.945Z,71.20
2022-11-28T05:47:57.625Z,71.31
2022-11-28T05:48:59.327Z,71.30
2022-11-28T05:50:01.023Z,71.02
2022-11-28T05:51:05.129Z,71.56
2022-11-28T05:52:06.784Z,71.08
2022-11-28T05:53:09.320Z,71.52
2022-11-28T05:54:11.040Z,71.98
2022-11-28T05:55:12.702Z,72.42
2022-11-28T05:56:19.637Z,72.58
2022-11-28T05:57:21.314Z,72.81
2022-11-28T05:58:23.099Z,72.78
2022-11-28T05:59:25.102Z,72.37
2022-11-28T06:00:26.925Z,71.94
2022-11-28T06:01:30.139Z,72.01
2022-11-28T06:02:31.887Z,71.65
2022-11-28T06:03:33.772Z,71.96
2022-11-28T06:04:36.358Z,72.48
2022-11-28T06:05:43.813Z,72.58
2022-11-28T06:06:45.769Z,72.54
2022-11-28T06:07:47.537Z,72.47
2022-11-28T06:08:51.610Z,72.97
2022-11-28T06:09:53.269Z,72.71
2022-11-28T06:10:59.089Z,72.81
2022-11-28T06:12:00.767Z,73.22
2022-11-28T06:13:03.152Z,73.11
2022-11-28T06:14:04.955Z,73.13
2022-11-28T06:15:07.511Z,73.64
2022-11-28T06:16:23.189Z,73.25
2022-11-28T06:17:24.895Z,73.41
2022-11-28T06:18:26.749Z,73.75
2022-11-28T06:19:28.409Z,73.49
2022-11-28T06:20:30.124Z,73.40
2022-11-28T06:21:32.803Z,73.28
2022-11-28T06:22:35.135Z,73.01
2022-11-28T06:23:38.358Z,73.14
2022-11-28T06:24:40.011Z,73.39
2022-11-28T06:25:41.789Z,73.10
2022-11-28T06:26:43.624Z,73.02
2022-11-28T06:27:45.327Z,72.59
2022-11-28T06:28:47.558Z,73.10
2022-11-28T06:29:49.192Z,73.46
2022-11-28T06:30:50.842Z,73.39
2022-11-28T06:31:52.723Z,72.78
2022-11-28T06:32:54.409Z,73.24
2022-11-28T06:33:57.181Z,73.08
2022-11-28T06:34:58.951Z,72.89
2022-11-28T06:36:04.777Z,73.06
2022-11-28T06:37:06.592Z,73.10
2022-11-28T06:38:14.089Z,73.01
2022-11-28T06:39:17.778Z,73.10
2022-11-28T06:40:19.551Z,73.04
2022-11-28T06:41:23.124Z,72.46
2022-11-28T06:42:24.879Z,72.42
2022-11-28T06:43:27.255Z,73.23
2022-11-28T06:44:28.941Z,72.92
2022-11-28T06:45:30.638Z,72.48
2022-11-28T06:46:32.384Z,72.29
2022-11-28T06:47:34.110Z,72.86
2022-11-28T06:48:35.759Z,72.52
2022-11-28T06:49:37.405Z,72.84
2022-11-28T06:50:39.098Z,72.88
2022-11-28T06:51:42.286Z,73.07
2022-11-28T06:52:43.929Z,73.67
2022-11-28T06:53:45.696Z,73.35
2022-11-28T06:54:47.381Z,73.69
2022-11-28T06:55:49.019Z,72.96
2022-11-28T06:56:50.708Z,73.44
2022-11-28T06:57:52.438Z,73.87
2022-11-28T06:58:56.439Z,73.84
2022-11-28T06:59:58.198Z,73.86
2022-11-28T07:01:06.455Z,74.07
2022-11-28T07:02:08.315Z,74.69
2022-11-28T07:03:10.113Z,74.45
2022-11-28T07:04:11.812Z,74.39
2022-11-28T07:05:16.470Z,74.57
2022-11-28T07:06:19.896Z,74.24
2022-11-28T07:07:22.037Z,74.92
2022-11-28T07:08:23.820Z,74.96
2022-11-28T07:09:25.493Z,75.13
2022-11-28T07:10:28.290Z,75.33
2022-11-28T07:11:31.971Z,75.25
2022-11-28T07:12:33.814Z,74.10
2022-11-28T07:13:35.968Z,74.51
2022-11-28T07:14:38.343Z,73.93
2022-11-28T07:15:49.127Z,74.89
2022-11-28T07:16:50.954Z,74.27
2022-11-28T07:17:53.060Z,74.13
2022-11-28T07:18:55.979Z,74.04
2022-11-28T07:19:57.645Z,73.98
2022-11-28T07:20:59.533Z,73.98
2022-11-28T07:22:01.276Z,74.13
2022-11-28T07:23:02.929Z,74.55
2022-11-28T07:24:04.708Z,74.70
2022-11-28T07:25:06.987Z,74.29
2022-11-28T07:26:08.642Z,75.13
2022-11-28T07:27:10.310Z,73.82
2022-11-28T07:28:14.573Z,73.88
2022-11-28T07:29:18.363Z,74.56
2022-11-28T07:30:20.375Z,72.91
2022-11-28T07:31:29.444Z,72.83
2022-11-28T07:32:31.150Z,72.43
2022-11-28T07:33:34.747Z,72.21
2022-11-28T07:34:36.535Z,72.57
2022-11-28T07:35:38.207Z,72.86
2022-11-28T07:36:39.977Z,73.16
2022-11-28T07:37:41.623Z,73.97
2022-11-28T07:38:43.576Z,72.93
2022-11-28T07:39:45.696Z,73.97
2022-11-28T07:40:47.415Z,73.81
2022-11-28T07:41:49.393Z,73.99
2022-11-28T07:42:51.355Z,73.16
2022-11-28T07:44:01.777Z,73.94
2022-11-28T07:45:04.600Z,73.66
2022-11-28T07:46:08.741Z,74.70
2022-11-28T07:47:10.496Z,73.87
2022-11-28T07:48:12.250Z,73.72
2022-11-28T07:49:15.168Z,74.33
2022-11-28T07:50:16.895Z,73.27
2022-11-28T07:51:24.471Z,73.76
2022-11-28T07:52:26.161Z,73.33
2022-11-28T07:53:27.832Z,73.23
2022-11-28T07:54:29.547Z,73.64
2022-11-28T07:55:31.244Z,74.04
2022-11-28T07:57:04.513Z,74.13
2022-11-28T07:57:57.441Z,74.16
2022-11-28T07:59:03.231Z,73.54
2022-11-28T08:00:05.720Z,74.02
2022-11-28T08:01:12.799Z,73.78
2022-11-28T08:02:14.548Z,73.82
2022-11-28T08:03:16.355Z,73.22
2022-11-28T08:04:18.033Z,73.65
2022-11-28T08:05:19.741Z,73.70
2022-11-28T08:06:24.758Z,73.28
2022-11-28T08:07:26.613Z,73.42
2022-11-28T08:08:28.332Z,73.87
2022-11-28T08:09:31.846Z,72.38
2022-11-28T08:10:33.515Z,72.84
2022-11-28T08:11:35.662Z,72.47
2022-11-28T08:12:37.362Z,73.99
2022-11-28T08:13:39.977Z,73.65
2022-11-28T08:14:42.001Z,73.46
2022-11-28T08:15:43.892Z,72.62
2022-11-28T08:16:45.680Z,73.42
2022-11-28T08:17:47.548Z,73.70
2022-11-28T08:18:50.681Z,72.83
2022-11-28T08:19:52.420Z,72.80
2022-11-28T08:21:03.879Z,72.35
2022-11-28T08:22:05.524Z,73.13
2022-11-28T08:23:07.341Z,73.10
2022-11-28T08:24:09.361Z,73.09
2022-11-28T08:25:11.051Z,72.65
2022-11-28T08:26:17.481Z,71.59
2022-11-28T08:27:19.214Z,72.13
2022-11-28T08:28:20.872Z,72.43
2022-11-28T08:29:22.575Z,72.25
2022-11-28T08:30:24.475Z,71.51
2022-11-28T08:31:31.480Z,71.88
2022-11-28T08:32:33.135Z,71.96
2022-11-28T08:33:34.833Z,72.42
2022-11-28T08:34:36.531Z,72.28
2022-11-28T08:35:40.353Z,73.20
2022-11-28T08:36:43.584Z,72.97
2022-11-28T08:37:45.337Z,73.24
2022-11-28T08:39:03.275Z,72.91
2022-11-28T08:40:09.786Z,73.00
2022-11-28T08:41:13.058Z,73.50
2022-11-28T08:42:14.744Z,73.20
2022-11-28T08:43:16.399Z,74.03
2022-11-28T08:44:18.055Z,73.77
2022-11-28T08:45:19.718Z,73.65
2022-11-28T08:46:22.610Z,73.31
2022-11-28T08:47:24.363Z,73.23
2022-11-28T08:48:26.247Z,72.40
2022-11-28T08:49:27.884Z,72.25
2022-11-28T08:50:29.525Z,72.12
2022-11-28T08:51:31.354Z,72.14
2022-11-28T08:52:33.345Z,72.37
2022-11-28T08:53:35.213Z,72.59
2022-11-28T08:54:36.938Z,72.53
2022-11-28T08:55:42.085Z,72.97
2022-11-28T08:56:45.376Z,72.63
2022-11-28T08:57:47.043Z,72.26
2022-11-28T08:58:48.781Z,72.38
2022-11-28T08:59:50.632Z,72.75
2022-11-28T09:00:52.729Z,72.10
2022-11-28T09:01:54.567Z,72.05
2022-11-28T09:02:56.343Z,71.15
2022-11-28T09:03:58.209Z,71.17
2022-11-28T09:04:59.933Z,71.37
2022-11-28T09:06:04.687Z,71.98
2022-11-28T09:07:06.367Z,70.93
2022-11-28T09:08:11.649Z,70.35
2022-11-28T09:09:13.680Z,70.85
2022-11-28T09:10:15.573Z,70.47
2022-11-28T09:11:19.667Z,69.52
2022-11-28T09:12:21.357Z,69.96
2022-11-28T09:13:23.086Z,69.73
2022-11-28T09:14:26.871Z,69.78
2022-11-28T09:15:28.648Z,70.09
2022-11-28T09:16:30.368Z,70.11
2022-11-28T09:17:32.155Z,70.66
2022-11-28T09:18:34.138Z,70.10
2022-11-28T09:19:35.804Z,69.87
2022-11-28T09:20:37.840Z,70.16
2022-11-28T09:21:40.681Z,70.96
2022-11-28T09:22:42.843Z,70.91
2022-11-28T09:23:45.474Z,70.60
2022-11-28T09:24:47.123Z,69.71
2022-11-28T09:25:48.772Z,70.21
2022-11-28T09:26:50.488Z,70.24
2022-11-28T09:27:52.182Z,70.42
2022-11-28T09:28:54.947Z,70.21
2022-11-28T09:29:56.624Z,70.93
2022-11-28T09:31:03.968Z,71.34
2022-11-28T09:32:05.752Z,70.45
2022-11-28T09:33:07.961Z,69.58
2022-11-28T09:34:09.635Z,69.93
2022-11-28T09:35:11.297Z,69.63
2022-11-28T09:36:18.925Z,70.74
2022-11-28T09:37:20.639Z,70.41
2022-11-28T09:38:23.354Z,70.21
2022-11-28T09:39:25.033Z,69.98
2022-11-28T09:40:42.128Z,71.22
2022-11-28T09:41:50.075Z,70.77
2022-11-28T09:42:51.793Z,70.48
2022-11-28T09:43:58.211Z,70.85
2022-11-28T09:45:12.789Z,70.83
2022-11-28T09:46:28.877Z,70.43
2022-11-28T09:47:32.973Z,70.28
2022-11-28T09:48:49.500Z,69.80
2022-11-28T09:50:06.141Z,70.72
2022-11-28T09:51:42.530Z,70.57
2022-11-28T09:52:54.121Z,69.74
2022-11-28T09:54:07.708Z,70.31
2022-11-28T09:55:27.856Z,71.36
2022-11-28T09:56:30.380Z,70.20
2022-11-28T09:57:34.547Z,70.80
2022-11-28T09:58:48.383Z,69.38
2022-11-28T09:59:50.083Z,69.94
2022-11-28T10:01:02.238Z,69.20
2022-11-28T10:02:22.294Z,69.82
2022-11-28T10:03:43.680Z,70.94
2022-11-28T10:05:00.710Z,70.96
2022-11-28T10:06:16.060Z,70.75
2022-11-28T10:07:32.384Z,70.23
2022-11-28T10:08:59.198Z,68.68
2022-11-28T10:10:39.107Z,70.51
2022-11-28T10:11:52.409Z,70.04
2022-11-28T10:13:06.755Z,68.90
2022-11-28T10:14:43.085Z,67.48
2022-11-28T10:15:59.821Z,68.82
2022-11-28T10:17:33.595Z,69.01
2022-11-28T10:18:47.084Z,68.56
2022-11-28T10:20:01.334Z,68.71
2022-11-28T10:21:21.096Z,67.91
2022-11-28T10:22:35.554Z,67.95
2022-11-28T10:23:40.642Z,68.73
2022-11-28T10:24:48.581Z,69.35
2022-11-28T10:25:55.243Z,67.59
2022-11-28T10:27:02.871Z,66.93
2022-11-28T10:28:15.056Z,66.64
2022-11-28T10:29:29.528Z,66.79
2022-11-28T10:30:36.251Z,67.02
2022-11-28T10:31:43.012Z,66.40
2022-11-28T10:32:52.386Z,66.52
2022-11-28T10:34:16.739Z,67.34
2022-11-28T10:35:26.771Z,68.44
2022-11-28T10:36:50.985Z,67.42
2022-11-28T10:37:53.016Z,67.15
2022-11-28T10:38:54.705Z,67.44
2022-11-28T10:39:58.990Z,67.40
2022-11-28T10:41:23.837Z,67.26
2022-11-28T10:42:35.271Z,66.49
2022-11-28T10:43:44.302Z,67.36
2022-11-28T10:44:48.685Z,68.51
2022-11-28T10:46:02.516Z,67.26
2022-11-28T10:47:17.921Z,66.82
2022-11-28T10:48:40.132Z,65.91
2022-11-28T10:50:14.832Z,64.89
2022-11-28T10:51:30.447Z,65.20
2022-11-28T10:52:32.091Z,65.63
2022-11-28T10:54:02.638Z,66.08
2022-11-28T10:55:35.328Z,66.08
2022-11-28T10:56:57.950Z,65.54
2022-11-28T10:58:10.385Z,67.33
2022-11-28T11:00:08.832Z,66.44
2022-11-28T11:01:11.494Z,66.51
2022-11-28T11:02:34.886Z,65.62
2022-11-28T11:03:39.237Z,65.72
2022-11-28T11:04:41.733Z,65.93
2022-11-28T11:05:43.835Z,66.07
2022-11-28T11:07:12.785Z,65.62
2022-11-28T11:08:29.936Z,65.88
2022-11-28T11:09:31.642Z,65.40
2022-11-28T11:10:36.787Z,65.37
2022-11-28T11:11:50.602Z,65.54
2022-11-28T11:12:53.617Z,65.45
2022-11-28T11:14:02.782Z,65.46
2022-11-28T11:15:22.830Z,65.44
2022-11-28T11:16:24.583Z,64.79
2022-11-28T11:17:35.891Z,64.95
2022-11-28T11:18:53.372Z,63.01
2022-11-28T11:19:55.122Z,63.61
2022-11-28T11:21:22.953Z,65.64
2022-11-28T11:22:32.058Z,63.23
2022-11-28T11:23:38.049Z,62.98
2022-11-28T11:24:40.125Z,62.73
2022-11-28T11:25:54.876Z,62.97
2022-11-28T11:27:05.170Z,62.73
2022-11-28T11:28:06.992Z,61.89
2022-11-28T11:29:21.957Z,63.42
2022-11-28T11:30:32.890Z,64.02
2022-11-28T11:31:44.912Z,63.66
2022-11-28T11:32:51.464Z,63.39
2022-11-28T11:34:03.697Z,62.48
2022-11-28T11:35:06.170Z,62.90
2022-11-28T11:36:22.338Z,63.25
2022-11-28T11:37:38.683Z,63.36
2022-11-28T11:38:40.531Z,63.20
2022-11-28T11:39:52.678Z,62.05
2022-11-28T11:40:54.348Z,61.97
2022-11-28T11:42:02.124Z,62.27
2022-11-28T11:43:03.800Z,62.69
2022-11-28T11:44:14.591Z,63.80
2022-11-28T11:45:30.372Z,63.26
2022-11-28T11:46:32.034Z,64.23
2022-11-28T11:47:42.463Z,63.67
2022-11-28T11:48:50.655Z,63.87
2022-11-28T11:50:03.408Z,63.90
2022-11-28T11:51:06.049Z,64.07
2022-11-28T11:52:13.415Z,65.08
2022-11-28T11:53:15.261Z,65.07
2022-11-28T11:54:18.721Z,64.97
2022-11-28T11:55:20.417Z,65.16
2022-11-28T11:56:22.073Z,65.46
2022-11-28T11:57:33.665Z,65.52
2022-11-28T11:58:47.197Z,65.41
2022-11-28T12:00:03.617Z,65.02
2022-11-28T12:01:06.502Z,65.42
2022-11-28T12:02:37.887Z,65.06
2022-11-28T12:03:48.590Z,65.47
2022-11-28T12:05:00.142Z,65.25
2022-11-28T12:06:20.249Z,65.36
2022-11-28T12:07:55.089Z,64.85
2022-11-28T12:09:22.922Z,64.65
2022-11-28T12:10:30.413Z,64.62
2022-11-28T12:11:36.117Z,65.70
2022-11-28T12:12:38.827Z,65.95
2022-11-28T12:13:40.807Z,65.36
2022-11-28T12:16:50.189Z,65.35
2022-11-28T12:17:59.181Z,65.52
2022-11-28T12:19:03.597Z,64.50
2022-11-28T12:20:23.349Z,65.73
2022-11-28T12:21:40.284Z,65.96
2022-11-28T12:23:03.615Z,66.71
2022-11-28T12:24:18.393Z,66.34
2022-11-28T12:25:32.527Z,66.75
2022-11-28T12:26:40.127Z,66.73
2022-11-28T12:27:41.731Z,67.26
2022-11-28T12:29:06.399Z,67.04
2022-11-28T12:30:34.275Z,66.27
2022-11-28T12:31:48.182Z,65.69
2022-11-28T12:33:23.631Z,66.72
2022-11-28T12:34:51.475Z,66.36
2022-11-28T12:36:09.942Z,67.07
2022-11-28T12:39:37.087Z,67.02
2022-11-28T12:40:51.029Z,67.34
2022-11-28T12:42:21.925Z,67.59
2022-11-28T12:43:29.312Z,67.77
2022-11-28T12:45:14.678Z,66.65
2022-11-28T12:46:39.564Z,67.43
2022-11-28T12:47:59.601Z,67.62
2022-11-28T12:49:46.655Z,67.60
2022-11-28T12:51:07.177Z,67.45
2022-11-28T12:52:29.229Z,67.53
2022-11-28T12:53:36.758Z,68.06
2022-11-28T12:54:57.989Z,68.32
2022-11-28T12:56:08.264Z,68.77
2022-11-28T12:57:42.212Z,68.92
2022-11-28T12:58:47.090Z,68.44
2022-11-28T13:00:10.497Z,68.66
2022-11-28T13:01:47.797Z,69.08
2022-11-28T13:03:10.288Z,68.93
2022-11-28T13:04:58.249Z,69.12
2022-11-28T13:05:59.868Z,69.54
2022-11-28T13:07:10.634Z,69.26
2022-11-28T13:08:46.625Z,69.83
2022-11-28T13:09:59.411Z,70.15
2022-11-28T13:11:13.238Z,70.30
2022-11-28T13:12:24.506Z,69.94
2022-11-28T13:13:43.428Z,70.00
2022-11-28T13:14:57.525Z,70.11
2022-11-28T13:16:12.373Z,70.25
2022-11-28T13:17:21.092Z,71.26
2022-11-28T13:18:48.644Z,71.78
2022-11-28T13:19:55.268Z,71.96
2022-11-28T13:21:15.018Z,72.19
2022-11-28T13:22:29.920Z,72.33
2022-11-28T13:23:50.958Z,71.16
2022-11-28T13:25:27.276Z,70.38
2022-11-28T13:26:45.156Z,70.48
2022-11-28T13:28:16.213Z,70.68
2022-11-28T13:29:32.158Z,70.50
2022-11-28T13:30:47.986Z,70.78
2022-11-28T13:32:02.155Z,71.06
2022-11-28T13:33:32.061Z,70.67
2022-11-28T13:34:35.083Z,70.55
2022-11-28T13:35:38.294Z,70.81
2022-11-28T13:38:47.144Z,71.17
2022-11-28T13:40:14.139Z,71.09
2022-11-28T13:42:06.349Z,70.93
2022-11-28T13:43:08.607Z,70.86
2022-11-28T13:44:32.811Z,71.18
2022-11-28T13:47:35.066Z,71.12
2022-11-28T13:50:30.335Z,71.06
2022-11-28T13:51:33.677Z,71.19
2022-11-28T13:52:42.973Z,71.59
2022-11-28T13:53:49.672Z,71.29
2022-11-28T13:54:55.506Z,70.99
2022-11-28T13:56:03.953Z,70.77
2022-11-28T13:57:34.821Z,71.31
2022-11-28T13:58:48.302Z,71.32
2022-11-28T14:00:22.346Z,70.52
2022-11-28T14:02:07.378Z,70.51
2022-11-28T14:03:20.142Z,70.94
2022-11-28T14:04:22.046Z,71.15
2022-11-28T14:05:36.264Z,71.14
2022-11-28T14:06:52.259Z,70.70
2022-11-28T14:07:55.881Z,71.27
2022-11-28T14:09:06.924Z,70.69
2022-11-28T14:10:27.354Z,70.64
2022-11-28T14:11:59.795Z,70.39
2022-11-28T14:13:23.549Z,70.27
2022-11-28T14:14:37.478Z,70.16
2022-11-28T14:16:12.297Z,70.48
2022-11-28T14:17:32.215Z,70.57
2022-11-28T14:18:58.670Z,71.19
2022-11-28T14:20:16.399Z,71.29
2022-11-28T14:21:55.663Z,71.21
2022-11-28T14:23:22.524Z,70.85
2022-11-28T14:24:52.099Z,71.03
2022-11-28T14:25:55.409Z,70.75
2022-11-28T14:27:04.175Z,70.68
2022-11-28T14:28:17.093Z,71.10
2022-11-28T14:29:27.679Z,70.88
2022-11-28T14:30:32.152Z,71.04
2022-11-28T14:31:40.331Z,71.19
2022-11-28T14:32:43.822Z,70.96
2022-11-28T14:33:46.433Z,71.15
2022-11-28T14:34:48.996Z,70.99
2022-11-28T14:35:50.758Z,71.18
2022-11-28T14:37:27.450Z,71.51
2022-11-28T14:38:31.936Z,71.82
2022-11-28T14:39:34.831Z,71.57
2022-11-28T14:40:54.926Z,71.59
2022-11-28T14:42:05.611Z,72.00
2022-11-28T14:43:27.224Z,71.96
2022-11-28T14:44:47.583Z,71.89
2022-11-28T14:45:50.802Z,72.50
2022-11-28T14:47:17.489Z,71.97
2022-11-28T14:48:22.295Z,71.92
2022-11-28T14:49:24.047Z,72.21
2022-11-28T14:50:25.651Z,71.97
2022-11-28T14:51:48.646Z,72.41
2022-11-28T14:52:52.737Z,71.97
2022-11-28T14:53:54.457Z,72.34
2022-11-28T14:54:56.488Z,72.48